LROPLRCV

Guest
Details From LROP - Bucarest Otopeni Intl
To LRCV - CRAIOVA
Flight Number -
Tags generated
Created
Modified
Stats Distance 96 nm / 178 km
Max Altitude 4,500 ft / 1,372 m
Waypoints 4
Social Downloads 0
Likes 0
Share VATSIM

Download

Looking for another format? Having issues loading an existing format? Contact us
Advertisement - Login to hide

Notes

Basic altitude profile: - Ascent Rate: 2500ft/min - Ascent Speed: 250kts - Cruise Altitude: 35000ft - Cruise Speed: 420kts - Descent Rate: 1500ft/min - Descent Speed: 250kts Options: - Use NATs: yes - Use PACOTS: yes - Use low airways: yes - Use high airways: yes

Route

LROP PEMOK W2 CRV LRCV

ID Type Via Altitude Latitude Longitude Leg Dist Tot Dist Heading (true) Name
O LROP APT - 0 ft / 0 m 44.57216˚ 26.10218˚ - 0 nm - Bucarest Otopeni Intl
PEMOK FIX - 4,200 ft / 1,280 m 44.36469˚ 24.34846˚ 76 nm 76 nm 261° / 260° -
CRV VOR W2 (AWY-LO) 4,500 ft / 1,372 m 44.31860˚ 23.92275˚ 18 nm 94 nm 262° / 261° CRAIOVA VOR-DME
O LRCV APT - 0 ft / 0 m 44.31815˚ 23.88854˚ 1 nm 96 nm 269° / 269° CRAIOVA

Altitude Profile

Advertisement - Login to hide

LROP

Details ICAO LROP (OTP)
Name Bucarest Otopeni Intl
Region Romania
Timezone Europe/Bucharest (UTC+2.0)
Stats Elevation 314 ft / 96 m (AMSL)
Location 44.572161° 26.102177°
Runways 2
Magnetic Variation 5.606° E

METAR

LROP 151800Z 00000KT 6000 NSC 05/04 Q1007 NOSIG

Decode

TAF

TAF LROP 151700Z 1518/1618 VRB04KT 7000 NSC BECMG 1520/1522 3000 BR BECMG 1600/1602 1500 BR BKN005 TEMPO 1602/1607 0600 FG OVC002 PROB30 1602/1606 0300 FG VV001 BECMG 1607/1609 3000 BR SCT010 BECMG 1609/1611 25012KT CAVOK

Decode

Departure Runways

ID Width Length Bearing (true) Bearing (mag) Surface Threshold Offset Overrun Length
08L 148 ft / 45 m 11,457 ft / 3,492 m 83.91° 78.30° Asphalt 500 ft / 152 m 0 ft / 0 m
08R 148 ft / 45 m 11,455 ft / 3,491 m 83.89° 78.28° Asphalt 450 ft / 137 m 0 ft / 0 m
26L 148 ft / 45 m 11,455 ft / 3,491 m 263.92° 258.31° Asphalt 450 ft / 137 m 0 ft / 0 m
26R 148 ft / 45 m 11,457 ft / 3,492 m 263.94° 258.33° Asphalt 500 ft / 152 m 0 ft / 0 m

LRCV

Details ICAO LRCV (CRA)
Name CRAIOVA
Region Romania
Timezone Europe/Bucharest (UTC+2.0)
Stats Elevation 626 ft / 191 m (AMSL)
Location 44.318152° 23.888541°
Runways 1
Magnetic Variation 5.217° E

METAR

LRCV 151800Z AUTO 07006KT BKN065/// 07/04 Q1006

Decode

TAF

Not found

Destination Runways

ID Width Length Bearing (true) Bearing (mag) Surface Threshold Offset Overrun Length
09 148 ft / 45 m 8,146 ft / 2,483 m 88.92° 83.70° Concrete 0 ft / 0 m 0 ft / 0 m
27 148 ft / 45 m 8,146 ft / 2,483 m 268.94° 263.72° Concrete 0 ft / 0 m 0 ft / 0 m

Popular Alternatives